sensor_id;sensor_type;location;lat;lon;timestamp;P1;durP1;ratioP1;P2;durP2;ratioP2
18042;SDS011;9146;48.074;11.968;2023-07-31T00:02:26;9.53;;;4.70;;
18042;SDS011;9146;48.074;11.968;2023-07-31T00:04:53;3.90;;;3.00;;
18042;SDS011;9146;48.074;11.968;2023-07-31T00:07:21;6.13;;;2.93;;
18042;SDS011;9146;48.074;11.968;2023-07-31T00:09:48;3.20;;;2.60;;
18042;SDS011;9146;48.074;11.968;2023-07-31T00:12:15;4.07;;;2.70;;
18042;SDS011;9146;48.074;11.968;2023-07-31T00:14:42;2.57;;;2.47;;
18042;SDS011;9146;48.074;11.968;2023-07-31T00:17:09;2.20;;;2.10;;
18042;SDS011;9146;48.074;11.968;2023-07-31T00:19:36;2.53;;;2.33;;
18042;SDS011;9146;48.074;11.968;2023-07-31T00:22:04;2.17;;;2.00;;
18042;SDS011;9146;48.074;11.968;2023-07-31T00:24:35;2.43;;;2.23;;
18042;SDS011;9146;48.074;11.968;2023-07-31T00:27:02;2.80;;;2.57;;
18042;SDS011;9146;48.074;11.968;2023-07-31T00:29:29;4.00;;;2.97;;
18042;SDS011;9146;48.074;11.968;2023-07-31T00:31:56;3.70;;;2.60;;
18042;SDS011;9146;48.074;11.968;2023-07-31T00:34:23;3.10;;;2.80;;
18042;SDS011;9146;48.074;11.968;2023-07-31T00:36:52;2.47;;;2.27;;
18042;SDS011;9146;48.074;11.968;2023-07-31T00:39:19;2.80;;;2.60;;
18042;SDS011;9146;48.074;11.968;2023-07-31T00:41:47;2.67;;;2.37;;
18042;SDS011;9146;48.074;11.968;2023-07-31T00:44:14;2.87;;;2.60;;
18042;SDS011;9146;48.074;11.968;2023-07-31T00:46:41;3.00;;;2.17;;
18042;SDS011;9146;48.074;11.968;2023-07-31T00:49:08;3.03;;;2.30;;
18042;SDS011;9146;48.074;11.968;2023-07-31T00:51:36;2.57;;;2.37;;
18042;SDS011;9146;48.074;11.968;2023-07-31T00:54:02;1.97;;;1.87;;
18042;SDS011;9146;48.074;11.968;2023-07-31T00:56:29;2.50;;;2.30;;
18042;SDS011;9146;48.074;11.968;2023-07-31T00:58:59;2.50;;;2.30;;
18042;SDS011;9146;48.074;11.968;2023-07-31T01:01:26;1.97;;;1.87;;
18042;SDS011;9146;48.074;11.968;2023-07-31T01:03:53;2.50;;;2.40;;
18042;SDS011;9146;48.074;11.968;2023-07-31T01:06:22;2.30;;;2.10;;
18042;SDS011;9146;48.074;11.968;2023-07-31T01:08:54;2.10;;;2.00;;
18042;SDS011;9146;48.074;11.968;2023-07-31T01:11:28;3.17;;;2.53;;
18042;SDS011;9146;48.074;11.968;2023-07-31T01:13:56;2.37;;;2.20;;
18042;SDS011;9146;48.074;11.968;2023-07-31T01:16:25;2.50;;;2.30;;
18042;SDS011;9146;48.074;11.968;2023-07-31T01:18:52;2.40;;;2.20;;
18042;SDS011;9146;48.074;11.968;2023-07-31T01:21:22;2.17;;;2.07;;
18042;SDS011;9146;48.074;11.968;2023-07-31T01:27:01;2.67;;;2.47;;
18042;SDS011;9146;48.074;11.968;2023-07-31T01:29:35;3.23;;;2.40;;
18042;SDS011;9146;48.074;11.968;2023-07-31T01:32:08;3.00;;;2.30;;
18042;SDS011;9146;48.074;11.968;2023-07-31T01:34:36;7.83;;;2.70;;
18042;SDS011;9146;48.074;11.968;2023-07-31T01:37:04;2.90;;;2.70;;
18042;SDS011;9146;48.074;11.968;2023-07-31T01:39:32;2.63;;;2.50;;
18042;SDS011;9146;48.074;11.968;2023-07-31T01:42:00;2.17;;;1.97;;
18042;SDS011;9146;48.074;11.968;2023-07-31T01:44:27;2.20;;;2.10;;
18042;SDS011;9146;48.074;11.968;2023-07-31T01:46:54;2.30;;;2.20;;
18042;SDS011;9146;48.074;11.968;2023-07-31T01:49:20;2.50;;;2.17;;
18042;SDS011;9146;48.074;11.968;2023-07-31T01:51:47;3.40;;;2.20;;
18042;SDS011;9146;48.074;11.968;2023-07-31T01:54:14;3.30;;;2.27;;
18042;SDS011;9146;48.074;11.968;2023-07-31T01:56:41;2.17;;;2.07;;
18042;SDS011;9146;48.074;11.968;2023-07-31T01:59:09;2.73;;;2.30;;
18042;SDS011;9146;48.074;11.968;2023-07-31T02:01:36;2.47;;;2.30;;
18042;SDS011;9146;48.074;11.968;2023-07-31T02:04:03;3.23;;;2.87;;
18042;SDS011;9146;48.074;11.968;2023-07-31T02:06:30;2.50;;;2.30;;
18042;SDS011;9146;48.074;11.968;2023-07-31T02:08:57;3.73;;;3.27;;
18042;SDS011;9146;48.074;11.968;2023-07-31T02:11:24;4.90;;;3.33;;
18042;SDS011;9146;48.074;11.968;2023-07-31T02:13:50;2.80;;;2.60;;
18042;SDS011;9146;48.074;11.968;2023-07-31T02:16:19;2.67;;;2.30;;
18042;SDS011;9146;48.074;11.968;2023-07-31T02:18:45;3.33;;;2.17;;
18042;SDS011;9146;48.074;11.968;2023-07-31T02:21:12;2.47;;;2.27;;
18042;SDS011;9146;48.074;11.968;2023-07-31T02:23:39;2.33;;;2.13;;
18042;SDS011;9146;48.074;11.968;2023-07-31T02:26:06;2.37;;;2.27;;
18042;SDS011;9146;48.074;11.968;2023-07-31T02:28:33;2.63;;;2.43;;
18042;SDS011;9146;48.074;11.968;2023-07-31T02:31:01;1.93;;;1.83;;
18042;SDS011;9146;48.074;11.968;2023-07-31T02:33:29;2.60;;;2.40;;
18042;SDS011;9146;48.074;11.968;2023-07-31T02:35:56;2.67;;;2.47;;
18042;SDS011;9146;48.074;11.968;2023-07-31T02:38:23;3.40;;;3.13;;
18042;SDS011;9146;48.074;11.968;2023-07-31T02:40:50;2.80;;;2.60;;
18042;SDS011;9146;48.074;11.968;2023-07-31T02:43:17;4.10;;;2.90;;
18042;SDS011;9146;48.074;11.968;2023-07-31T02:45:44;2.40;;;2.20;;
18042;SDS011;9146;48.074;11.968;2023-07-31T02:48:12;3.17;;;2.90;;
18042;SDS011;9146;48.074;11.968;2023-07-31T02:50:40;2.87;;;2.60;;
18042;SDS011;9146;48.074;11.968;2023-07-31T02:53:07;5.10;;;3.00;;
18042;SDS011;9146;48.074;11.968;2023-07-31T02:55:34;3.53;;;3.00;;
18042;SDS011;9146;48.074;11.968;2023-07-31T02:58:01;4.17;;;2.97;;
18042;SDS011;9146;48.074;11.968;2023-07-31T03:00:28;3.07;;;2.77;;
18042;SDS011;9146;48.074;11.968;2023-07-31T03:02:55;3.30;;;3.00;;
18042;SDS011;9146;48.074;11.968;2023-07-31T03:05:22;3.07;;;2.80;;
18042;SDS011;9146;48.074;11.968;2023-07-31T03:07:50;2.90;;;2.70;;
18042;SDS011;9146;48.074;11.968;2023-07-31T03:10:17;3.60;;;3.10;;
18042;SDS011;9146;48.074;11.968;2023-07-31T03:12:46;4.93;;;3.20;;
18042;SDS011;9146;48.074;11.968;2023-07-31T03:15:13;3.20;;;2.90;;
18042;SDS011;9146;48.074;11.968;2023-07-31T03:17:40;3.27;;;3.07;;
18042;SDS011;9146;48.074;11.968;2023-07-31T03:20:07;3.40;;;3.10;;
18042;SDS011;9146;48.074;11.968;2023-07-31T03:22:34;2.83;;;2.63;;
18042;SDS011;9146;48.074;11.968;2023-07-31T03:25:03;2.60;;;2.40;;
18042;SDS011;9146;48.074;11.968;2023-07-31T03:27:30;3.93;;;2.60;;
18042;SDS011;9146;48.074;11.968;2023-07-31T03:29:59;2.47;;;2.37;;
18042;SDS011;9146;48.074;11.968;2023-07-31T03:32:26;3.10;;;2.40;;
18042;SDS011;9146;48.074;11.968;2023-07-31T03:34:53;4.00;;;2.53;;
18042;SDS011;9146;48.074;11.968;2023-07-31T03:37:20;2.20;;;2.10;;
18042;SDS011;9146;48.074;11.968;2023-07-31T03:39:47;3.07;;;2.70;;
18042;SDS011;9146;48.074;11.968;2023-07-31T03:42:15;3.13;;;2.33;;
18042;SDS011;9146;48.074;11.968;2023-07-31T03:44:42;2.30;;;2.10;;
18042;SDS011;9146;48.074;11.968;2023-07-31T03:47:09;3.17;;;2.87;;
18042;SDS011;9146;48.074;11.968;2023-07-31T03:49:36;3.03;;;2.47;;
18042;SDS011;9146;48.074;11.968;2023-07-31T03:52:03;5.00;;;3.17;;
18042;SDS011;9146;48.074;11.968;2023-07-31T03:54:30;3.73;;;3.23;;
18042;SDS011;9146;48.074;11.968;2023-07-31T03:56:57;3.13;;;2.80;;
18042;SDS011;9146;48.074;11.968;2023-07-31T03:59:26;2.67;;;2.47;;
18042;SDS011;9146;48.074;11.968;2023-07-31T04:01:52;5.60;;;2.93;;
18042;SDS011;9146;48.074;11.968;2023-07-31T04:04:19;3.00;;;2.63;;
18042;SDS011;9146;48.074;11.968;2023-07-31T04:06:46;2.70;;;2.50;;
18042;SDS011;9146;48.074;11.968;2023-07-31T04:09:13;3.03;;;2.83;;
18042;SDS011;9146;48.074;11.968;2023-07-31T04:11:40;2.20;;;2.10;;
18042;SDS011;9146;48.074;11.968;2023-07-31T04:14:07;3.23;;;2.93;;
18042;SDS011;9146;48.074;11.968;2023-07-31T04:16:35;6.03;;;3.37;;
18042;SDS011;9146;48.074;11.968;2023-07-31T04:19:02;3.93;;;3.40;;
18042;SDS011;9146;48.074;11.968;2023-07-31T04:21:30;4.77;;;3.50;;
18042;SDS011;9146;48.074;11.968;2023-07-31T04:23:56;6.33;;;3.87;;
18042;SDS011;9146;48.074;11.968;2023-07-31T04:26:23;3.47;;;3.17;;
18042;SDS011;9146;48.074;11.968;2023-07-31T04:28:50;9.60;;;3.90;;
18042;SDS011;9146;48.074;11.968;2023-07-31T04:31:17;4.10;;;2.90;;
18042;SDS011;9146;48.074;11.968;2023-07-31T04:33:45;4.93;;;3.60;;
18042;SDS011;9146;48.074;11.968;2023-07-31T04:36:12;3.40;;;3.10;;
18042;SDS011;9146;48.074;11.968;2023-07-31T04:38:39;3.90;;;3.13;;
18042;SDS011;9146;48.074;11.968;2023-07-31T04:41:07;3.30;;;2.97;;
18042;SDS011;9146;48.074;11.968;2023-07-31T04:43:34;3.13;;;2.80;;
18042;SDS011;9146;48.074;11.968;2023-07-31T04:46:04;3.27;;;2.90;;
18042;SDS011;9146;48.074;11.968;2023-07-31T04:48:31;3.53;;;3.23;;
18042;SDS011;9146;48.074;11.968;2023-07-31T04:50:59;6.33;;;3.60;;
18042;SDS011;9146;48.074;11.968;2023-07-31T04:53:26;5.60;;;3.57;;
18042;SDS011;9146;48.074;11.968;2023-07-31T04:55:53;4.60;;;3.03;;
18042;SDS011;9146;48.074;11.968;2023-07-31T04:58:20;3.87;;;3.10;;
18042;SDS011;9146;48.074;11.968;2023-07-31T05:00:47;2.87;;;2.67;;
18042;SDS011;9146;48.074;11.968;2023-07-31T05:03:13;3.40;;;3.10;;
18042;SDS011;9146;48.074;11.968;2023-07-31T05:05:40;2.60;;;2.27;;
18042;SDS011;9146;48.074;11.968;2023-07-31T05:08:09;2.60;;;2.40;;
18042;SDS011;9146;48.074;11.968;2023-07-31T05:10:36;5.57;;;3.27;;
18042;SDS011;9146;48.074;11.968;2023-07-31T05:13:02;3.47;;;3.17;;
18042;SDS011;9146;48.074;11.968;2023-07-31T05:15:29;4.60;;;3.30;;
18042;SDS011;9146;48.074;11.968;2023-07-31T05:17:56;4.10;;;3.23;;
18042;SDS011;9146;48.074;11.968;2023-07-31T05:20:23;4.13;;;3.43;;
18042;SDS011;9146;48.074;11.968;2023-07-31T05:22:50;3.73;;;3.43;;
18042;SDS011;9146;48.074;11.968;2023-07-31T05:25:18;3.27;;;3.00;;
18042;SDS011;9146;48.074;11.968;2023-07-31T05:27:45;4.87;;;2.50;;
18042;SDS011;9146;48.074;11.968;2023-07-31T05:30:12;4.00;;;3.23;;
18042;SDS011;9146;48.074;11.968;2023-07-31T05:32:39;3.30;;;3.00;;
18042;SDS011;9146;48.074;11.968;2023-07-31T05:35:06;4.30;;;3.40;;
18042;SDS011;9146;48.074;11.968;2023-07-31T05:37:34;4.03;;;3.33;;
18042;SDS011;9146;48.074;11.968;2023-07-31T05:40:01;3.07;;;2.77;;
18042;SDS011;9146;48.074;11.968;2023-07-31T05:42:29;3.90;;;3.10;;
18042;SDS011;9146;48.074;11.968;2023-07-31T05:44:56;5.13;;;2.77;;
18042;SDS011;9146;48.074;11.968;2023-07-31T05:47:23;4.67;;;3.13;;
18042;SDS011;9146;48.074;11.968;2023-07-31T05:49:49;4.40;;;2.40;;
18042;SDS011;9146;48.074;11.968;2023-07-31T05:52:17;2.90;;;2.63;;
18042;SDS011;9146;48.074;11.968;2023-07-31T05:54:44;4.27;;;2.83;;
18042;SDS011;9146;48.074;11.968;2023-07-31T05:57:12;4.20;;;2.67;;
18042;SDS011;9146;48.074;11.968;2023-07-31T05:59:40;3.20;;;2.50;;
18042;SDS011;9146;48.074;11.968;2023-07-31T06:02:07;2.80;;;2.30;;
18042;SDS011;9146;48.074;11.968;2023-07-31T06:04:34;4.23;;;2.67;;
18042;SDS011;9146;48.074;11.968;2023-07-31T06:07:00;4.60;;;3.20;;
18042;SDS011;9146;48.074;11.968;2023-07-31T06:09:28;3.67;;;2.77;;
18042;SDS011;9146;48.074;11.968;2023-07-31T06:11:55;4.73;;;2.83;;
18042;SDS011;9146;48.074;11.968;2023-07-31T06:14:22;7.57;;;2.30;;
18042;SDS011;9146;48.074;11.968;2023-07-31T06:16:50;3.87;;;3.13;;
18042;SDS011;9146;48.074;11.968;2023-07-31T06:19:17;4.20;;;2.17;;
18042;SDS011;9146;48.074;11.968;2023-07-31T06:21:45;4.50;;;2.57;;
18042;SDS011;9146;48.074;11.968;2023-07-31T06:24:12;2.70;;;2.40;;
18042;SDS011;9146;48.074;11.968;2023-07-31T06:26:44;2.40;;;2.20;;
18042;SDS011;9146;48.074;11.968;2023-07-31T06:29:10;3.50;;;2.30;;
18042;SDS011;9146;48.074;11.968;2023-07-31T06:31:37;3.87;;;2.10;;
18042;SDS011;9146;48.074;11.968;2023-07-31T06:34:06;4.23;;;2.43;;
18042;SDS011;9146;48.074;11.968;2023-07-31T06:36:32;2.80;;;2.37;;
18042;SDS011;9146;48.074;11.968;2023-07-31T06:38:59;2.53;;;2.33;;
18042;SDS011;9146;48.074;11.968;2023-07-31T06:41:26;2.43;;;2.23;;
18042;SDS011;9146;48.074;11.968;2023-07-31T06:43:53;2.20;;;2.00;;
18042;SDS011;9146;48.074;11.968;2023-07-31T06:46:20;2.50;;;2.30;;
18042;SDS011;9146;48.074;11.968;2023-07-31T06:48:48;6.40;;;2.60;;
18042;SDS011;9146;48.074;11.968;2023-07-31T06:51:16;2.33;;;2.10;;
18042;SDS011;9146;48.074;11.968;2023-07-31T06:53:43;2.30;;;2.20;;
18042;SDS011;9146;48.074;11.968;2023-07-31T06:56:11;4.93;;;2.20;;
18042;SDS011;9146;48.074;11.968;2023-07-31T06:58:39;2.20;;;2.00;;
18042;SDS011;9146;48.074;11.968;2023-07-31T07:01:06;3.00;;;2.70;;
18042;SDS011;9146;48.074;11.968;2023-07-31T07:03:33;2.67;;;2.47;;
18042;SDS011;9146;48.074;11.968;2023-07-31T07:06:00;2.40;;;2.20;;
18042;SDS011;9146;48.074;11.968;2023-07-31T07:08:28;6.47;;;2.27;;
18042;SDS011;9146;48.074;11.968;2023-07-31T07:10:55;3.93;;;2.70;;
18042;SDS011;9146;48.074;11.968;2023-07-31T07:13:22;2.10;;;1.87;;
18042;SDS011;9146;48.074;11.968;2023-07-31T07:15:49;3.47;;;1.93;;
18042;SDS011;9146;48.074;11.968;2023-07-31T07:18:16;3.63;;;2.23;;
18042;SDS011;9146;48.074;11.968;2023-07-31T07:20:46;3.53;;;1.90;;
18042;SDS011;9146;48.074;11.968;2023-07-31T07:23:14;4.47;;;1.90;;
18042;SDS011;9146;48.074;11.968;2023-07-31T07:25:43;2.93;;;2.10;;
18042;SDS011;9146;48.074;11.968;2023-07-31T07:28:12;2.63;;;2.43;;
18042;SDS011;9146;48.074;11.968;2023-07-31T07:30:39;2.07;;;1.80;;
18042;SDS011;9146;48.074;11.968;2023-07-31T07:33:06;2.57;;;2.20;;
18042;SDS011;9146;48.074;11.968;2023-07-31T07:35:33;4.67;;;2.30;;
18042;SDS011;9146;48.074;11.968;2023-07-31T07:38:01;2.43;;;2.00;;
18042;SDS011;9146;48.074;11.968;2023-07-31T07:40:28;2.07;;;1.97;;
18042;SDS011;9146;48.074;11.968;2023-07-31T07:42:56;2.10;;;1.90;;
18042;SDS011;9146;48.074;11.968;2023-07-31T07:45:25;2.30;;;2.17;;
18042;SDS011;9146;48.074;11.968;2023-07-31T07:47:52;2.57;;;1.73;;
18042;SDS011;9146;48.074;11.968;2023-07-31T07:50:19;3.20;;;2.10;;
18042;SDS011;9146;48.074;11.968;2023-07-31T07:52:46;2.20;;;2.00;;
18042;SDS011;9146;48.074;11.968;2023-07-31T07:55:13;2.40;;;1.80;;
18042;SDS011;9146;48.074;11.968;2023-07-31T07:57:40;3.57;;;2.27;;
18042;SDS011;9146;48.074;11.968;2023-07-31T08:00:09;1.90;;;1.80;;
18042;SDS011;9146;48.074;11.968;2023-07-31T08:02:37;3.50;;;2.10;;
18042;SDS011;9146;48.074;11.968;2023-07-31T08:05:04;3.53;;;2.10;;
18042;SDS011;9146;48.074;11.968;2023-07-31T08:07:31;3.40;;;1.80;;
18042;SDS011;9146;48.074;11.968;2023-07-31T08:09:58;5.40;;;2.87;;
18042;SDS011;9146;48.074;11.968;2023-07-31T08:12:25;3.13;;;1.70;;
18042;SDS011;9146;48.074;11.968;2023-07-31T08:14:52;3.10;;;2.00;;
18042;SDS011;9146;48.074;11.968;2023-07-31T08:17:20;2.23;;;2.03;;
18042;SDS011;9146;48.074;11.968;2023-07-31T08:19:47;2.90;;;2.30;;
18042;SDS011;9146;48.074;11.968;2023-07-31T08:22:14;4.67;;;2.50;;
18042;SDS011;9146;48.074;11.968;2023-07-31T08:24:41;3.07;;;2.17;;
18042;SDS011;9146;48.074;11.968;2023-07-31T08:27:08;2.03;;;1.73;;
18042;SDS011;9146;48.074;11.968;2023-07-31T08:29:35;7.23;;;1.90;;
18042;SDS011;9146;48.074;11.968;2023-07-31T08:32:02;2.23;;;2.03;;
18042;SDS011;9146;48.074;11.968;2023-07-31T08:34:31;2.03;;;1.93;;
18042;SDS011;9146;48.074;11.968;2023-07-31T08:36:57;3.27;;;2.40;;
18042;SDS011;9146;48.074;11.968;2023-07-31T08:39:24;4.70;;;2.40;;
18042;SDS011;9146;48.074;11.968;2023-07-31T08:41:51;2.93;;;1.93;;
18042;SDS011;9146;48.074;11.968;2023-07-31T08:44:24;3.17;;;2.47;;
18042;SDS011;9146;48.074;11.968;2023-07-31T08:46:51;4.53;;;2.17;;
18042;SDS011;9146;48.074;11.968;2023-07-31T08:49:19;1.90;;;1.80;;
18042;SDS011;9146;48.074;11.968;2023-07-31T08:51:49;2.83;;;2.37;;
18042;SDS011;9146;48.074;11.968;2023-07-31T08:54:18;2.00;;;1.90;;
18042;SDS011;9146;48.074;11.968;2023-07-31T08:56:46;1.87;;;1.77;;
18042;SDS011;9146;48.074;11.968;2023-07-31T08:59:13;4.73;;;2.23;;
18042;SDS011;9146;48.074;11.968;2023-07-31T09:01:43;2.23;;;2.03;;
18042;SDS011;9146;48.074;11.968;2023-07-31T09:04:16;3.67;;;2.20;;
18042;SDS011;9146;48.074;11.968;2023-07-31T09:06:46;5.43;;;2.20;;
18042;SDS011;9146;48.074;11.968;2023-07-31T09:09:16;3.63;;;2.60;;
18042;SDS011;9146;48.074;11.968;2023-07-31T09:11:46;2.40;;;2.20;;
18042;SDS011;9146;48.074;11.968;2023-07-31T09:14:13;2.33;;;2.07;;
18042;SDS011;9146;48.074;11.968;2023-07-31T09:16:51;2.13;;;1.90;;
18042;SDS011;9146;48.074;11.968;2023-07-31T09:19:24;2.63;;;2.27;;
18042;SDS011;9146;48.074;11.968;2023-07-31T09:21:52;2.73;;;2.50;;
18042;SDS011;9146;48.074;11.968;2023-07-31T09:24:25;5.47;;;2.70;;
18042;SDS011;9146;48.074;11.968;2023-07-31T09:26:53;2.60;;;1.77;;
18042;SDS011;9146;48.074;11.968;2023-07-31T09:29:21;3.93;;;2.23;;
18042;SDS011;9146;48.074;11.968;2023-07-31T09:31:50;2.30;;;2.00;;
18042;SDS011;9146;48.074;11.968;2023-07-31T09:34:17;2.83;;;2.50;;
18042;SDS011;9146;48.074;11.968;2023-07-31T09:36:45;2.17;;;2.00;;
18042;SDS011;9146;48.074;11.968;2023-07-31T09:39:13;5.00;;;2.60;;
18042;SDS011;9146;48.074;11.968;2023-07-31T09:41:43;4.80;;;2.70;;
18042;SDS011;9146;48.074;11.968;2023-07-31T09:44:11;2.30;;;2.10;;
18042;SDS011;9146;48.074;11.968;2023-07-31T09:46:38;2.00;;;1.90;;
18042;SDS011;9146;48.074;11.968;2023-07-31T09:49:06;2.50;;;1.73;;
18042;SDS011;9146;48.074;11.968;2023-07-31T09:51:35;2.20;;;2.00;;
18042;SDS011;9146;48.074;11.968;2023-07-31T09:54:12;3.23;;;2.07;;
18042;SDS011;9146;48.074;11.968;2023-07-31T09:56:42;2.43;;;1.93;;
18042;SDS011;9146;48.074;11.968;2023-07-31T09:59:11;2.23;;;2.10;;
18042;SDS011;9146;48.074;11.968;2023-07-31T10:01:39;3.03;;;2.23;;
18042;SDS011;9146;48.074;11.968;2023-07-31T10:04:07;4.60;;;1.80;;
18042;SDS011;9146;48.074;11.968;2023-07-31T10:06:35;3.90;;;1.97;;
18042;SDS011;9146;48.074;11.968;2023-07-31T10:09:04;4.13;;;2.90;;
18042;SDS011;9146;48.074;11.968;2023-07-31T10:11:34;2.70;;;2.23;;
18042;SDS011;9146;48.074;11.968;2023-07-31T10:14:06;3.77;;;2.50;;
18042;SDS011;9146;48.074;11.968;2023-07-31T10:16:37;2.20;;;1.60;;
18042;SDS011;9146;48.074;11.968;2023-07-31T10:19:05;2.00;;;1.90;;
18042;SDS011;9146;48.074;11.968;2023-07-31T10:21:33;5.57;;;2.53;;
18042;SDS011;9146;48.074;11.968;2023-07-31T10:24:02;2.23;;;2.00;;
18042;SDS011;9146;48.074;11.968;2023-07-31T10:26:31;3.63;;;2.23;;
18042;SDS011;9146;48.074;11.968;2023-07-31T10:28:59;2.53;;;1.97;;
18042;SDS011;9146;48.074;11.968;2023-07-31T10:31:28;3.00;;;2.70;;
18042;SDS011;9146;48.074;11.968;2023-07-31T10:33:55;3.10;;;2.17;;
18042;SDS011;9146;48.074;11.968;2023-07-31T10:36:24;3.17;;;1.97;;
18042;SDS011;9146;48.074;11.968;2023-07-31T10:38:52;4.67;;;2.40;;
18042;SDS011;9146;48.074;11.968;2023-07-31T10:41:27;2.80;;;2.33;;
18042;SDS011;9146;48.074;11.968;2023-07-31T10:43:57;3.67;;;2.43;;
18042;SDS011;9146;48.074;11.968;2023-07-31T10:46:24;2.77;;;2.23;;
18042;SDS011;9146;48.074;11.968;2023-07-31T10:48:58;2.80;;;1.80;;
18042;SDS011;9146;48.074;11.968;2023-07-31T10:51:32;2.60;;;1.87;;
18042;SDS011;9146;48.074;11.968;2023-07-31T10:54:10;3.60;;;2.50;;
18042;SDS011;9146;48.074;11.968;2023-07-31T10:56:39;6.73;;;2.53;;
18042;SDS011;9146;48.074;11.968;2023-07-31T10:59:06;3.83;;;2.73;;
18042;SDS011;9146;48.074;11.968;2023-07-31T11:01:51;4.77;;;2.10;;
18042;SDS011;9146;48.074;11.968;2023-07-31T11:07:03;3.20;;;1.67;;
18042;SDS011;9146;48.074;11.968;2023-07-31T11:09:35;2.30;;;2.10;;
18042;SDS011;9146;48.074;11.968;2023-07-31T11:12:02;3.47;;;2.50;;
18042;SDS011;9146;48.074;11.968;2023-07-31T11:14:30;2.03;;;1.93;;
18042;SDS011;9146;48.074;11.968;2023-07-31T11:16:57;3.40;;;2.33;;
18042;SDS011;9146;48.074;11.968;2023-07-31T11:19:24;2.00;;;1.90;;
18042;SDS011;9146;48.074;11.968;2023-07-31T11:21:53;3.40;;;2.40;;
18042;SDS011;9146;48.074;11.968;2023-07-31T11:24:19;3.03;;;2.73;;
18042;SDS011;9146;48.074;11.968;2023-07-31T11:26:50;2.10;;;1.90;;
18042;SDS011;9146;48.074;11.968;2023-07-31T11:29:17;4.60;;;2.43;;
18042;SDS011;9146;48.074;11.968;2023-07-31T11:31:45;6.20;;;2.03;;
18042;SDS011;9146;48.074;11.968;2023-07-31T11:34:12;3.27;;;2.13;;
18042;SDS011;9146;48.074;11.968;2023-07-31T11:36:40;2.33;;;2.13;;
18042;SDS011;9146;48.074;11.968;2023-07-31T11:39:08;4.20;;;2.40;;
18042;SDS011;9146;48.074;11.968;2023-07-31T11:41:36;5.07;;;2.47;;
18042;SDS011;9146;48.074;11.968;2023-07-31T11:44:06;2.20;;;1.90;;
18042;SDS011;9146;48.074;11.968;2023-07-31T11:46:33;2.60;;;2.33;;
18042;SDS011;9146;48.074;11.968;2023-07-31T11:49:01;2.53;;;1.80;;
18042;SDS011;9146;48.074;11.968;2023-07-31T11:51:28;2.90;;;2.30;;
18042;SDS011;9146;48.074;11.968;2023-07-31T11:53:56;2.93;;;1.60;;
18042;SDS011;9146;48.074;11.968;2023-07-31T11:56:27;2.63;;;2.40;;
18042;SDS011;9146;48.074;11.968;2023-07-31T11:58:56;2.70;;;2.10;;
18042;SDS011;9146;48.074;11.968;2023-07-31T12:01:25;2.43;;;1.87;;
18042;SDS011;9146;48.074;11.968;2023-07-31T12:03:53;2.27;;;2.07;;
18042;SDS011;9146;48.074;11.968;2023-07-31T12:06:21;2.43;;;2.00;;
18042;SDS011;9146;48.074;11.968;2023-07-31T12:08:48;5.03;;;2.27;;
18042;SDS011;9146;48.074;11.968;2023-07-31T12:11:15;4.80;;;2.57;;
18042;SDS011;9146;48.074;11.968;2023-07-31T12:13:44;4.23;;;2.00;;
18042;SDS011;9146;48.074;11.968;2023-07-31T12:16:11;3.80;;;2.00;;
18042;SDS011;9146;48.074;11.968;2023-07-31T12:18:38;3.87;;;2.67;;
18042;SDS011;9146;48.074;11.968;2023-07-31T12:21:06;2.50;;;1.83;;
18042;SDS011;9146;48.074;11.968;2023-07-31T12:23:35;4.20;;;2.20;;
18042;SDS011;9146;48.074;11.968;2023-07-31T12:26:04;2.50;;;2.30;;
18042;SDS011;9146;48.074;11.968;2023-07-31T12:28:34;2.80;;;2.00;;
18042;SDS011;9146;48.074;11.968;2023-07-31T12:31:04;2.50;;;2.30;;
18042;SDS011;9146;48.074;11.968;2023-07-31T12:33:32;4.40;;;2.43;;
18042;SDS011;9146;48.074;11.968;2023-07-31T12:36:00;3.20;;;2.30;;
18042;SDS011;9146;48.074;11.968;2023-07-31T12:38:29;2.13;;;1.93;;
18042;SDS011;9146;48.074;11.968;2023-07-31T12:40:56;1.93;;;1.80;;
18042;SDS011;9146;48.074;11.968;2023-07-31T12:43:23;1.80;;;1.70;;
18042;SDS011;9146;48.074;11.968;2023-07-31T12:45:51;8.07;;;2.13;;
18042;SDS011;9146;48.074;11.968;2023-07-31T12:48:19;4.93;;;2.37;;
18042;SDS011;9146;48.074;11.968;2023-07-31T12:50:46;2.90;;;2.40;;
18042;SDS011;9146;48.074;11.968;2023-07-31T12:53:14;2.50;;;2.30;;
18042;SDS011;9146;48.074;11.968;2023-07-31T12:55:41;2.37;;;2.17;;
18042;SDS011;9146;48.074;11.968;2023-07-31T12:58:09;2.53;;;2.00;;
18042;SDS011;9146;48.074;11.968;2023-07-31T13:00:36;2.83;;;2.17;;
18042;SDS011;9146;48.074;11.968;2023-07-31T13:03:03;2.30;;;2.07;;
18042;SDS011;9146;48.074;11.968;2023-07-31T13:05:31;2.37;;;2.10;;
18042;SDS011;9146;48.074;11.968;2023-07-31T13:07:58;2.43;;;1.90;;
18042;SDS011;9146;48.074;11.968;2023-07-31T13:10:25;3.00;;;2.40;;
18042;SDS011;9146;48.074;11.968;2023-07-31T13:12:53;2.17;;;1.97;;
18042;SDS011;9146;48.074;11.968;2023-07-31T13:15:20;3.07;;;2.00;;
18042;SDS011;9146;48.074;11.968;2023-07-31T13:17:47;2.73;;;1.90;;
18042;SDS011;9146;48.074;11.968;2023-07-31T13:20:14;2.90;;;2.00;;
18042;SDS011;9146;48.074;11.968;2023-07-31T13:22:42;2.20;;;2.00;;
18042;SDS011;9146;48.074;11.968;2023-07-31T13:25:09;3.00;;;2.37;;
18042;SDS011;9146;48.074;11.968;2023-07-31T13:27:36;3.23;;;1.90;;
18042;SDS011;9146;48.074;11.968;2023-07-31T13:30:03;2.50;;;1.90;;
18042;SDS011;9146;48.074;11.968;2023-07-31T13:32:31;1.83;;;1.73;;
18042;SDS011;9146;48.074;11.968;2023-07-31T13:34:58;2.17;;;1.60;;
18042;SDS011;9146;48.074;11.968;2023-07-31T13:37:25;3.40;;;2.23;;
18042;SDS011;9146;48.074;11.968;2023-07-31T13:39:53;3.53;;;1.90;;
18042;SDS011;9146;48.074;11.968;2023-07-31T13:42:20;2.47;;;2.27;;
18042;SDS011;9146;48.074;11.968;2023-07-31T13:44:47;1.93;;;1.77;;
18042;SDS011;9146;48.074;11.968;2023-07-31T13:47:14;2.40;;;2.20;;
18042;SDS011;9146;48.074;11.968;2023-07-31T13:49:41;2.07;;;1.97;;
18042;SDS011;9146;48.074;11.968;2023-07-31T13:52:08;2.43;;;2.23;;
18042;SDS011;9146;48.074;11.968;2023-07-31T13:54:35;3.43;;;2.00;;
18042;SDS011;9146;48.074;11.968;2023-07-31T13:57:04;1.60;;;1.50;;
18042;SDS011;9146;48.074;11.968;2023-07-31T13:59:31;3.23;;;2.20;;
18042;SDS011;9146;48.074;11.968;2023-07-31T14:01:58;3.47;;;2.50;;
18042;SDS011;9146;48.074;11.968;2023-07-31T14:04:25;3.40;;;1.90;;
18042;SDS011;9146;48.074;11.968;2023-07-31T14:06:52;1.90;;;1.80;;
18042;SDS011;9146;48.074;11.968;2023-07-31T14:09:19;2.70;;;1.80;;
18042;SDS011;9146;48.074;11.968;2023-07-31T14:11:46;3.00;;;2.20;;
18042;SDS011;9146;48.074;11.968;2023-07-31T14:14:14;2.97;;;2.23;;
18042;SDS011;9146;48.074;11.968;2023-07-31T14:16:43;2.97;;;2.03;;
18042;SDS011;9146;48.074;11.968;2023-07-31T14:19:09;2.80;;;2.10;;
18042;SDS011;9146;48.074;11.968;2023-07-31T14:21:36;2.73;;;2.00;;
18042;SDS011;9146;48.074;11.968;2023-07-31T14:24:03;2.57;;;1.70;;
18042;SDS011;9146;48.074;11.968;2023-07-31T14:26:31;3.10;;;2.40;;
18042;SDS011;9146;48.074;11.968;2023-07-31T14:28:58;3.13;;;1.70;;
18042;SDS011;9146;48.074;11.968;2023-07-31T14:31:26;2.40;;;2.20;;
18042;SDS011;9146;48.074;11.968;2023-07-31T14:33:53;2.27;;;1.60;;
18042;SDS011;9146;48.074;11.968;2023-07-31T14:36:20;2.63;;;2.13;;
18042;SDS011;9146;48.074;11.968;2023-07-31T14:38:46;1.83;;;1.73;;
18042;SDS011;9146;48.074;11.968;2023-07-31T14:41:13;3.90;;;2.00;;
18042;SDS011;9146;48.074;11.968;2023-07-31T14:43:40;2.20;;;1.97;;
18042;SDS011;9146;48.074;11.968;2023-07-31T14:46:07;2.03;;;1.40;;
18042;SDS011;9146;48.074;11.968;2023-07-31T14:48:35;4.47;;;1.70;;
18042;SDS011;9146;48.074;11.968;2023-07-31T14:51:02;2.00;;;1.80;;
18042;SDS011;9146;48.074;11.968;2023-07-31T14:53:29;1.50;;;1.40;;
18042;SDS011;9146;48.074;11.968;2023-07-31T14:55:56;1.60;;;1.50;;
18042;SDS011;9146;48.074;11.968;2023-07-31T14:58:23;2.07;;;1.57;;